Time;durP1;ratioP1;P1;durP2;ratioP2;P2;SDS_P1;SDS_P2;PMS_P1;PMS_P2;Temp;Humidity;BMP_temperature;BMP_pressure;BME280_temperature;BME280_humidity;BME280_pressure;Samples;Min_cycle;Max_cycle;Signal;HPM_P1;HPM_P2
2022/01/26 00:00:57;;;;;;;96.90;52.50;;;;;;;2.90;83.27;103383.47;5056377;28;20029;-36
2022/01/26 00:06:22;;;;;;;98.88;55.65;;;;;;;2.81;83.28;103374.31;5056007;28;20476;-36
2022/01/26 00:08:48;;;;;;;99.65;52.33;;;;;;;2.94;82.74;103387.59;5056071;28;20040;-36
2022/01/26 00:11:13;;;;;;;93.57;51.70;;;;;;;2.94;82.57;103391.13;5055708;28;20032;-36
2022/01/26 00:13:39;;;;;;;92.73;51.10;;;;;;;2.86;82.96;103371.31;5055392;28;20021;-36
2022/01/26 00:16:08;;;;;;;100.07;52.20;;;;;;;2.93;83.14;103389.44;5056034;28;20036;-37
2022/01/26 00:18:36;;;;;;;96.32;52.17;;;;;;;2.89;82.55;103389.78;5055301;28;20444;-36
2022/01/26 00:21:11;;;;;;;100.20;53.88;;;;;;;2.92;82.97;103386.84;5055797;28;20040;-36
2022/01/26 00:29:22;;;;;;;98.53;52.22;;;;;;;2.92;83.18;103376.16;5013382;28;20144;-36
2022/01/26 00:33:06;;;;;;;99.30;51.75;;;;;;;2.88;83.51;103358.66;5013036;28;20112;-36
2022/01/26 00:43:00;;;;;;;100.80;53.00;;;;;;;2.86;83.16;103368.63;5012922;28;20541;-36
2022/01/26 00:45:33;;;;;;;101.97;51.80;;;;;;;2.86;83.07;103376.66;5012763;28;20045;-36
2022/01/26 00:48:00;;;;;;;102.70;54.47;;;;;;;2.82;82.61;103374.19;5012785;28;20042;-36
2022/01/26 00:50:25;;;;;;;108.45;55.67;;;;;;;2.81;82.72;103367.16;5012739;28;20033;-36
2022/01/26 00:52:54;;;;;;;107.20;55.57;;;;;;;2.81;83.44;103369.81;5012046;28;20087;-36
2022/01/26 00:55:20;;;;;;;106.00;55.67;;;;;;;2.72;83.08;103362.50;5013032;28;20045;-36
2022/01/26 00:57:46;;;;;;;;;;;;;;;2.88;83.58;103364.00;5013232;28;20038;-36
2022/01/26 01:00:18;;;;;;;99.18;50.13;;;;;;;2.77;82.93;103363.00;5026569;28;19919;-36
2022/01/26 01:02:44;;;;;;;103.45;55.33;;;;;;;2.78;83.02;103369.19;5054549;28;20067;-36
2022/01/26 01:05:19;;;;;;;102.28;53.13;;;;;;;2.75;82.96;103370.31;5053132;28;20028;-37
2022/01/26 01:07:47;;;;;;;102.25;53.53;;;;;;;2.75;82.79;103367.63;5055352;28;20025;-36
2022/01/26 01:10:16;;;;;;;104.95;54.28;;;;;;;2.78;82.99;103369.19;5055046;28;20033;-36
2022/01/26 01:12:43;;;;;;;106.00;54.47;;;;;;;2.61;82.63;103341.13;5054234;28;20422;-36
2022/01/26 01:15:10;;;;;;;103.40;54.53;;;;;;;2.70;82.98;103358.28;5054783;28;20389;-36
2022/01/26 01:17:41;;;;;;;101.95;54.55;;;;;;;2.63;83.05;103335.66;5054431;28;20025;-36
2022/01/26 01:30:39;;;;;;;111.32;55.30;;;;;;;2.81;83.60;103340.44;5054063;28;20048;-35
2022/01/26 01:33:07;;;;;;;102.07;55.17;;;;;;;2.72;83.70;103321.59;5053630;28;20396;-35
2022/01/26 01:35:36;;;;;;;111.35;56.55;;;;;;;2.74;83.85;103325.84;5054296;28;20263;-36
2022/01/26 01:38:09;;;;;;;99.53;53.13;;;;;;;2.74;83.90;103319.66;5053628;28;20033;-36
2022/01/26 01:40:36;;;;;;;96.68;53.05;;;;;;;2.75;84.15;103322.22;5053439;28;20029;-36
2022/01/26 01:43:04;;;;;;;99.35;52.38;;;;;;;2.85;84.39;103333.03;5053832;28;20432;-36
2022/01/26 01:45:43;;;;;;;99.45;51.33;;;;;;;2.80;84.33;103325.38;5053889;28;20040;-36
2022/01/26 01:48:11;;;;;;;98.57;52.65;;;;;;;2.83;84.04;103338.50;5053507;28;20116;-36
2022/01/26 01:50:41;;;;;;;107.18;55.33;;;;;;;2.83;84.62;103338.50;5053497;28;20021;-36
2022/01/26 01:53:07;;;;;;;99.85;52.53;;;;;;;2.69;84.13;103320.03;5053804;28;20029;-36
2022/01/26 01:55:33;;;;;;;99.63;53.42;;;;;;;2.81;84.43;103327.06;5053732;28;20024;-36
2022/01/26 01:58:00;;;;;;;100.00;53.13;;;;;;;2.81;83.98;103326.22;5053914;28;20079;-36
2022/01/26 02:00:27;;;;;;;95.45;51.63;;;;;;;2.80;84.26;103335.22;5053467;28;20401;-36
2022/01/26 02:02:53;;;;;;;95.78;51.20;;;;;;;2.77;85.07;103325.59;5053296;28;20025;-35
2022/01/26 02:05:18;;;;;;;93.43;51.17;;;;;;;2.73;84.22;103316.16;5052490;28;20385;-36
2022/01/26 02:07:44;;;;;;;101.70;53.17;;;;;;;2.75;84.74;103314.19;5053138;28;20124;-36
2022/01/26 02:10:10;;;;;;;92.30;51.10;;;;;;;2.70;84.53;103307.50;5052558;28;20052;-35
2022/01/26 02:12:39;;;;;;;94.43;51.00;;;;;;;2.67;83.77;103311.25;5053467;28;20025;-36
2022/01/26 02:15:11;;;;;;;90.47;48.58;;;;;;;2.67;83.69;103305.06;5053563;28;20025;-36
2022/01/26 02:18:13;;;;;;;90.88;50.00;;;;;;;2.65;82.75;103315.88;5053490;28;20148;-36
2022/01/26 02:51:17;;;;;;;95.45;51.28;;;;;;;2.63;85.03;103272.38;5052723;28;20079;-36
2022/01/26 02:56:16;;;;;;;93.23;52.03;;;;;;;2.56;84.74;103264.00;5052962;28;20049;-36
2022/01/26 03:03:48;;;;;;;93.07;51.67;;;;;;;2.59;85.24;103265.59;5052953;28;20037;-36
2022/01/26 03:06:18;;;;;;;94.10;50.40;;;;;;;2.59;84.79;103268.28;5052608;28;20059;-36
2022/01/26 03:08:56;;;;;;;95.03;51.83;;;;;;;2.59;84.86;103260.25;5053375;28;20033;-36
2022/01/26 03:11:26;;;;;;;95.97;52.25;;;;;;;2.59;84.81;103249.56;5053404;28;20358;-36
2022/01/26 03:13:58;;;;;;;89.72;50.20;;;;;;;2.60;84.95;103253.09;5052478;28;20162;-36
2022/01/26 03:16:39;;;;;;;97.10;52.50;;;;;;;2.58;84.54;103263.88;5055483;28;20487;-36
2022/01/26 03:19:18;;;;;;;97.13;52.05;;;;;;;2.60;84.77;103259.28;5057241;28;20104;-36
2022/01/26 03:34:52;;;;;;;99.47;52.73;;;;;;;2.57;85.38;103230.13;5055957;28;20071;-36
2022/01/26 03:37:21;;;;;;;107.47;55.75;;;;;;;2.59;85.51;103246.91;5056408;28;20450;-36
2022/01/26 03:39:46;;;;;;;97.75;53.38;;;;;;;2.60;85.69;103250.44;5056791;28;20082;-36
2022/01/26 03:42:15;;;;;;;105.40;54.63;;;;;;;2.54;85.45;103254.44;5056031;28;20025;-36
2022/01/26 03:44:42;;;;;;;102.75;53.20;;;;;;;2.58;85.78;103256.72;5056200;28;20056;-36
2022/01/26 03:47:08;;;;;;;100.03;52.30;;;;;;;2.65;87.04;103251.75;5056067;28;20067;-36
2022/01/26 03:49:34;;;;;;;;;;;;;;;2.72;86.04;103236.94;5057052;28;20025;-36
2022/01/26 03:52:00;;;;;;;97.27;49.03;;;;;;;2.62;85.78;103233.28;5055928;28;19908;-36
2022/01/26 03:54:25;;;;;;;99.83;52.73;;;;;;;2.63;86.24;103234.97;5055652;28;20117;-35
2022/01/26 03:56:51;;;;;;;101.83;51.40;;;;;;;2.61;85.88;103244.94;5055453;28;20284;-36
2022/01/26 03:59:17;;;;;;;100.03;52.13;;;;;;;2.60;85.20;103243.25;5056319;28;20109;-36
2022/01/26 04:01:42;;;;;;;96.45;51.25;;;;;;;2.58;86.01;103235.34;5055395;28;20053;-35
2022/01/26 04:04:08;;;;;;;101.73;52.23;;;;;;;2.61;86.08;103249.44;5055946;28;20056;-35
2022/01/26 04:06:34;;;;;;;97.40;48.70;;;;;;;2.68;87.17;103243.50;5055505;28;20020;-36
2022/01/26 04:09:01;;;;;;;97.25;50.47;;;;;;;2.50;86.24;103232.44;5055756;28;20032;-36
2022/01/26 04:11:35;;;;;;;101.72;52.50;;;;;;;2.57;86.30;103247.00;5054388;28;20029;-36
2022/01/26 04:14:05;;;;;;;99.43;51.58;;;;;;;2.55;86.17;103240.09;5055813;28;20384;-35
2022/01/26 04:16:30;;;;;;;99.32;51.35;;;;;;;2.56;87.58;103242.63;5055389;28;20183;-35
2022/01/26 04:18:57;;;;;;;95.25;49.63;;;;;;;2.49;87.61;103232.53;5055289;28;20052;-36
2022/01/26 04:26:38;;;;;;;111.13;55.30;;;;;;;2.49;86.37;103245.91;5054712;28;20061;-35
2022/01/26 04:29:09;;;;;;;109.28;52.78;;;;;;;2.45;86.36;103257.81;5055598;28;20032;-36
2022/01/26 04:31:35;;;;;;;102.75;54.22;;;;;;;2.46;87.22;103247.00;5055616;28;20025;-36
2022/01/26 04:34:00;;;;;;;106.20;54.90;;;;;;;2.43;86.54;103267.75;5055327;28;20384;-35
2022/01/26 04:36:38;;;;;;;106.38;55.20;;;;;;;2.45;87.05;103271.16;5055614;28;20086;-35
2022/01/26 04:39:08;;;;;;;101.30;49.60;;;;;;;2.39;86.34;103275.16;5055206;28;20075;-35
2022/01/26 04:44:08;;;;;;;101.05;51.10;;;;;;;2.38;86.99;103276.09;5054588;28;20047;-36
2022/01/26 04:46:33;;;;;;;100.90;48.50;;;;;;;2.50;88.14;103287.69;5055032;28;20031;-35
2022/01/26 04:48:59;;;;;;;104.00;52.13;;;;;;;2.37;86.95;103270.91;5055474;28;20434;-35
2022/01/26 04:51:24;;;;;;;94.05;45.90;;;;;;;2.46;87.71;103272.84;5055152;28;20028;-35
2022/01/26 04:53:50;;;;;;;102.67;51.93;;;;;;;2.50;87.36;103274.34;5054811;28;20029;-35
2022/01/26 04:56:15;;;;;;;106.87;53.60;;;;;;;2.48;86.75;103287.78;5054771;28;20371;-36
2022/01/26 04:58:41;;;;;;;108.30;53.77;;;;;;;2.47;86.32;103302.13;5054617;28;20039;-36
2022/01/26 05:01:07;;;;;;;106.18;51.70;;;;;;;2.25;86.39;103246.84;5054386;28;20283;-36
2022/01/26 05:03:32;;;;;;;102.93;51.13;;;;;;;2.48;86.67;103276.25;5054349;28;20524;-36
2022/01/26 05:05:58;;;;;;;107.20;54.60;;;;;;;2.43;86.77;103267.75;5054775;28;20381;-36
2022/01/26 05:08:23;;;;;;;102.80;52.80;;;;;;;2.43;86.36;103265.06;5054474;28;20124;-36
2022/01/26 05:10:48;;;;;;;108.17;53.10;;;;;;;2.43;85.69;103281.09;5054644;28;20056;-36
2022/01/26 05:13:15;;;;;;;108.17;53.67;;;;;;;2.37;86.81;103278.91;5054406;28;20036;-35
2022/01/26 05:15:42;;;;;;;105.93;53.50;;;;;;;2.33;86.72;103267.59;5054630;28;20044;-36
2022/01/26 05:18:07;;;;;;;105.60;52.33;;;;;;;2.39;87.36;103252.91;5054026;28;20466;-36
2022/01/26 05:20:34;;;;;;;96.10;48.90;;;;;;;2.33;87.42;103256.91;5054608;28;20032;-36
2022/01/26 05:23:00;;;;;;;106.38;53.72;;;;;;;2.25;87.35;103246.84;5054242;28;20029;-36
2022/01/26 05:25:25;;;;;;;104.30;51.88;;;;;;;2.29;87.75;103232.28;5054636;28;20075;-36
2022/01/26 05:27:50;;;;;;;106.67;51.93;;;;;;;2.27;88.04;103236.88;5053870;28;20080;-36
2022/01/26 05:30:16;;;;;;;109.87;53.03;;;;;;;2.28;88.05;103227.06;5054345;28;20108;-36
2022/01/26 05:32:41;;;;;;;105.50;52.72;;;;;;;2.24;87.93;103233.59;5053938;28;20032;-36
2022/01/26 05:35:07;;;;;;;98.73;49.30;;;;;;;2.31;88.37;103249.03;5054080;28;20033;-36
2022/01/26 05:37:32;;;;;;;98.18;50.90;;;;;;;2.31;88.45;103249.03;5053906;28;20481;-37
2022/01/26 05:39:58;;;;;;;103.40;51.87;;;;;;;2.27;88.14;103239.56;5053449;28;20033;-37
2022/01/26 05:42:24;;;;;;;106.97;51.88;;;;;;;2.23;87.95;103240.75;5053941;28;20170;-35
2022/01/26 05:44:49;;;;;;;107.25;51.75;;;;;;;2.23;88.41;103240.75;5054308;28;20383;-35
2022/01/26 05:47:19;;;;;;;104.25;52.60;;;;;;;2.17;87.53;103246.56;5053627;28;20029;-36
2022/01/26 05:49:44;;;;;;;105.53;51.90;;;;;;;2.15;88.61;103234.28;5053536;28;20498;-36
2022/01/26 05:52:11;;;;;;;98.63;48.47;;;;;;;2.25;89.64;103233.50;5053569;28;20068;-36
2022/01/26 05:54:37;;;;;;;107.97;52.33;;;;;;;2.04;87.94;103219.09;5053648;28;20029;-36
2022/01/26 05:57:02;;;;;;;116.97;56.20;;;;;;;2.19;87.89;103235.75;5053233;28;20483;-36
2022/01/26 05:59:27;;;;;;;112.30;54.57;;;;;;;2.18;87.83;103226.06;5053439;28;20029;-36
2022/01/26 06:01:53;;;;;;;106.63;54.27;;;;;;;2.13;88.28;103223.75;5053174;28;20096;-36
2022/01/26 06:04:19;;;;;;;108.85;55.03;;;;;;;2.14;88.29;103221.91;5053471;28;20028;-36
2022/01/26 06:06:44;;;;;;;112.03;56.87;;;;;;;2.11;88.55;103223.03;5053078;28;20040;-36
2022/01/26 06:09:10;;;;;;;111.47;53.97;;;;;;;2.04;89.11;103219.09;5053468;28;20024;-36
2022/01/26 06:11:36;;;;;;;105.95;54.28;;;;;;;2.04;88.89;103227.13;5053335;28;20449;-36
2022/01/26 06:14:01;;;;;;;109.93;55.63;;;;;;;1.98;89.06;103230.25;5054171;28;20037;-36
2022/01/26 06:16:27;;;;;;;109.93;53.90;;;;;;;2.00;88.78;103244.31;5053544;28;20032;-37
2022/01/26 06:18:52;;;;;;;117.60;59.63;;;;;;;2.05;88.54;103253.72;5053177;28;20041;-36
2022/01/26 06:21:17;;;;;;;110.47;52.33;;;;;;;2.13;89.71;103244.25;5053164;28;20021;-36
2022/01/26 06:23:43;;;;;;;109.13;53.07;;;;;;;2.14;89.38;103224.59;5053542;28;20025;-36
2022/01/26 06:26:08;;;;;;;122.57;61.50;;;;;;;2.07;89.49;103216.22;5053026;28;20033;-36
2022/01/26 06:28:34;;;;;;;110.13;55.27;;;;;;;2.13;89.65;103234.41;5053588;28;20045;-36
2022/01/26 06:31:09;;;;;;;105.57;54.15;;;;;;;2.04;89.08;103213.75;5053376;28;20056;-36
2022/01/26 06:33:35;;;;;;;112.63;56.53;;;;;;;2.05;89.52;103221.69;5053363;28;20087;-36
2022/01/26 06:36:00;;;;;;;111.22;56.33;;;;;;;2.07;89.85;103224.22;5053317;28;20032;-36
2022/01/26 06:38:30;;;;;;;110.67;54.80;;;;;;;2.09;89.81;103235.63;5052646;28;20020;-36
2022/01/26 06:40:57;;;;;;;120.95;57.78;;;;;;;1.96;89.65;103213.53;5053200;28;20287;-36
2022/01/26 06:43:27;;;;;;;111.75;55.40;;;;;;;2.08;89.97;103241.94;5052851;28;20099;-36
2022/01/26 06:45:59;;;;;;;110.47;54.30;;;;;;;2.04;89.42;103232.44;5053116;28;20095;-36
2022/01/26 06:50:56;;;;;;;106.85;52.40;;;;;;;2.15;89.86;103248.53;5052377;28;20067;-36
2022/01/26 06:53:21;;;;;;;113.90;54.90;;;;;;;2.18;90.61;103237.59;5052670;28;20441;-36
2022/01/26 06:55:46;;;;;;;106.17;53.23;;;;;;;2.10;90.56;103228.47;5053114;28;20066;-36
2022/01/26 06:58:12;;;;;;;114.27;55.30;;;;;;;2.05;90.26;103226.16;5053241;28;20033;-36
2022/01/26 07:00:37;;;;;;;111.60;55.53;;;;;;;2.12;90.42;103235.41;5053112;28;20047;-36
2022/01/26 07:03:03;;;;;;;112.97;55.63;;;;;;;2.03;90.55;103223.59;5052733;28;20422;-36
2022/01/26 07:05:28;;;;;;;111.32;54.30;;;;;;;2.07;91.00;103224.22;5052855;28;20432;-36
2022/01/26 07:07:54;;;;;;;115.47;56.97;;;;;;;2.16;90.89;103236.03;5052699;28;20032;-36
2022/01/26 07:10:19;;;;;;;106.93;53.27;;;;;;;2.16;90.96;103236.03;5052478;28;20055;-36
2022/01/26 07:12:44;;;;;;;113.03;55.07;;;;;;;2.14;90.79;103241.47;5051005;28;20128;-36
2022/01/26 07:23:04;;;;;;;109.90;54.33;;;;;;;2.14;91.69;103262.81;5052697;28;20037;-36
2022/01/26 07:25:29;;;;;;;113.70;54.10;;;;;;;2.18;91.77;103269.63;5053000;28;20422;-36
2022/01/26 07:27:58;;;;;;;109.43;55.23;;;;;;;2.12;91.87;103237.22;5052784;28;20342;-35
2022/01/26 07:30:24;;;;;;;117.70;57.55;;;;;;;2.15;92.26;103245.84;5053307;28;20351;-36
2022/01/26 07:32:49;;;;;;;106.75;52.80;;;;;;;2.09;92.29;103243.63;5052522;28;20116;-35
2022/01/26 07:35:14;;;;;;;121.53;56.27;;;;;;;2.21;92.50;103258.72;5052614;28;20111;-36
2022/01/26 07:37:41;;;;;;;117.70;59.03;;;;;;;2.18;93.15;103253.59;5052874;28;20038;-35
2022/01/26 07:40:07;;;;;;;121.85;59.42;;;;;;;2.15;93.29;103252.97;5052442;28;20461;-36
2022/01/26 07:42:34;;;;;;;123.75;58.90;;;;;;;2.16;93.64;103260.91;5052637;28;20021;-36
2022/01/26 07:45:00;;;;;;;;;;;;;;;2.25;92.76;103256.69;5053587;28;20036;-36
2022/01/26 07:47:26;;;;;;;136.07;63.10;;;;;;;2.15;93.72;103253.84;5052330;28;19916;-35
2022/01/26 07:49:55;;;;;;;120.18;58.28;;;;;;;2.19;93.71;103254.44;5052568;28;20370;-35
2022/01/26 07:52:20;;;;;;;124.78;57.97;;;;;;;2.18;94.46;103258.09;5052301;28;20036;-35
2022/01/26 07:54:48;;;;;;;121.28;58.53;;;;;;;2.18;94.13;103258.94;5052724;28;20454;-35
2022/01/26 07:57:13;;;;;;;129.00;58.92;;;;;;;2.12;94.55;103261.25;5051930;28;20473;-35
2022/01/26 07:59:39;;;;;;;126.37;60.83;;;;;;;2.08;94.67;103265.94;5052402;28;20018;-35
2022/01/26 08:02:04;;;;;;;126.73;60.47;;;;;;;2.00;94.76;103247.88;5052625;28;20411;-36
2022/01/26 08:04:29;;;;;;;119.07;57.60;;;;;;;2.20;94.81;103286.41;5056128;28;20090;-36
2022/01/26 08:06:55;;;;;;;117.50;54.87;;;;;;;2.25;95.07;103286.91;5055467;28;20036;-36
2022/01/26 08:09:20;;;;;;;119.07;57.07;;;;;;;2.25;94.93;103275.38;5055409;28;20032;-36
2022/01/26 08:11:45;;;;;;;129.03;58.43;;;;;;;2.23;95.27;103279.94;5055761;28;20111;-36
2022/01/26 08:14:11;;;;;;;115.77;54.50;;;;;;;2.22;95.46;103280.94;5056193;28;20457;-36
2022/01/26 08:16:38;;;;;;;124.43;57.93;;;;;;;2.22;94.91;103289.78;5056116;28;20278;-36
2022/01/26 08:19:03;;;;;;;128.90;61.28;;;;;;;2.19;95.85;103276.66;5056387;28;20415;-36
2022/01/26 08:21:29;;;;;;;118.37;57.83;;;;;;;2.25;95.94;103284.22;5056001;28;20060;-35
2022/01/26 08:24:02;;;;;;;123.80;56.73;;;;;;;2.24;96.16;103279.81;5056030;28;20028;-35
2022/01/26 08:26:37;;;;;;;113.90;54.08;;;;;;;2.24;96.00;103282.50;5055747;28;20037;-36
2022/01/26 08:29:03;;;;;;;119.38;57.72;;;;;;;2.27;95.91;103286.78;5055978;28;20072;-35
2022/01/26 08:31:28;;;;;;;122.30;54.45;;;;;;;2.27;96.34;103279.59;5055081;28;20421;-35
2022/01/26 08:33:53;;;;;;;113.80;53.97;;;;;;;2.30;95.87;103271.38;5055134;28;20029;-35
2022/01/26 08:36:19;;;;;;;122.87;56.73;;;;;;;2.21;95.94;103256.06;5055041;28;20033;-36
2022/01/26 08:38:44;;;;;;;125.63;55.67;;;;;;;2.23;96.47;103266.59;5055248;28;20029;-35
2022/01/26 08:41:10;;;;;;;111.23;52.80;;;;;;;2.35;96.00;103280.84;5055645;28;20025;-35
2022/01/26 08:43:36;;;;;;;117.35;56.47;;;;;;;2.29;96.26;103282.16;5055060;28;20028;-36
2022/01/26 08:46:01;;;;;;;108.87;52.57;;;;;;;2.25;96.11;103273.53;5055548;28;20032;-36
2022/01/26 08:48:27;;;;;;;113.03;53.87;;;;;;;2.19;96.04;103255.31;5054984;28;20048;-36
2022/01/26 08:50:52;;;;;;;108.77;51.90;;;;;;;2.33;95.99;103283.63;5055213;28;20029;-35
2022/01/26 08:53:17;;;;;;;106.60;51.37;;;;;;;2.29;95.81;103283.03;5054691;28;20033;-36
2022/01/26 08:55:43;;;;;;;105.07;49.47;;;;;;;2.41;95.86;103291.91;5055196;28;20024;-36
2022/01/26 08:58:08;;;;;;;102.47;50.15;;;;;;;2.43;95.73;103289.09;5054760;28;20025;-36
2022/01/26 09:00:35;;;;;;;106.73;51.10;;;;;;;2.46;95.78;103280.88;5055479;28;20105;-36
2022/01/26 09:03:01;;;;;;;99.90;48.92;;;;;;;2.52;96.39;103267.88;5054643;28;20119;-36
2022/01/26 09:05:26;;;;;;;111.38;53.70;;;;;;;2.48;95.90;103261.06;5054486;28;20489;-36
2022/01/26 09:07:56;;;;;;;102.33;50.27;;;;;;;2.56;95.95;103273.84;5054206;28;20029;-36
2022/01/26 09:10:21;;;;;;;106.78;52.13;;;;;;;2.53;95.81;103277.59;5055105;28;20035;-36
2022/01/26 09:12:48;;;;;;;107.03;52.22;;;;;;;2.49;96.00;103283.28;5054122;28;20111;-36
2022/01/26 09:15:15;;;;;;;112.68;53.42;;;;;;;2.49;95.80;103275.28;5054765;28;20051;-36
2022/01/26 09:17:42;;;;;;;100.75;50.05;;;;;;;2.49;96.44;103285.97;5054140;28;20116;-36
2022/01/26 09:20:08;;;;;;;112.18;54.53;;;;;;;2.50;96.66;103290.34;5054114;28;20029;-36
2022/01/26 09:22:34;;;;;;;112.30;52.28;;;;;;;2.50;96.21;103280.53;5054349;28;20045;-36
2022/01/26 09:25:00;;;;;;;109.15;53.10;;;;;;;2.35;95.96;103263.00;5054473;28;20071;-36
2022/01/26 09:27:25;;;;;;;104.60;50.47;;;;;;;2.33;96.18;103252.44;5054205;28;20098;-36
2022/01/26 09:29:51;;;;;;;106.33;51.27;;;;;;;2.54;96.23;103291.81;5054436;28;20041;-36
2022/01/26 09:32:17;;;;;;;107.18;51.70;;;;;;;2.47;96.66;103275.41;5053891;28;20386;-36
2022/01/26 09:34:42;;;;;;;101.40;50.47;;;;;;;2.58;96.37;103293.25;5054729;28;20035;-36
2022/01/26 09:37:16;;;;;;;108.57;51.90;;;;;;;2.55;96.56;103288.19;5054630;28;20048;-36
2022/01/26 09:39:43;;;;;;;98.78;49.50;;;;;;;2.53;96.33;103271.41;5054757;28;20017;-35
2022/01/26 09:42:09;;;;;;;102.53;48.45;;;;;;;2.65;96.36;103281.16;5054000;28;20039;-35
2022/01/26 09:44:35;;;;;;;97.30;49.03;;;;;;;2.67;96.00;103273.84;5054170;28;20037;-35
2022/01/26 09:47:01;;;;;;;91.38;47.85;;;;;;;2.61;95.71;103262.81;5053913;28;20447;-35
2022/01/26 09:49:34;;;;;;;102.28;49.90;;;;;;;2.69;95.40;103263.91;5054248;28;20120;-35
2022/01/26 09:52:02;;;;;;;93.65;46.72;;;;;;;2.62;96.03;103246.66;5054500;28;20045;-35
2022/01/26 09:54:30;;;;;;;92.63;47.28;;;;;;;2.74;95.53;103261.72;5054028;28;20080;-35
2022/01/26 09:57:01;;;;;;;91.72;47.92;;;;;;;2.75;95.72;103262.59;5054492;28;20033;-35
2022/01/26 09:59:26;;;;;;;96.53;49.88;;;;;;;2.79;95.70;103270.22;5053933;28;20040;-36
2022/01/26 10:01:52;;;;;;;96.50;48.30;;;;;;;2.75;95.64;103274.13;5052409;28;20029;-36
2022/01/26 10:04:39;;;;;;;93.03;46.80;;;;;;;2.79;95.93;103270.22;5053166;28;20068;-36
2022/01/26 10:17:43;;;;;;;91.55;45.60;;;;;;;2.79;95.12;103264.03;5053904;28;20044;-36
2022/01/26 10:20:10;;;;;;;89.15;45.90;;;;;;;2.72;95.18;103250.28;5053304;28;20029;-36
2022/01/26 10:22:36;;;;;;;82.45;43.90;;;;;;;2.78;95.00;103252.50;5053386;28;20382;-36
2022/01/26 10:25:08;;;;;;;86.03;43.47;;;;;;;2.69;94.88;103237.19;5052532;28;20028;-35
2022/01/26 10:27:38;;;;;;;81.60;43.30;;;;;;;2.74;94.75;103245.69;5053579;28;20355;-36
2022/01/26 10:30:08;;;;;;;82.38;43.92;;;;;;;2.79;95.05;103256.03;5052901;28;20035;-36
2022/01/26 10:32:35;;;;;;;77.18;41.40;;;;;;;2.67;95.39;103247.13;5052805;28;20043;-35
2022/01/26 10:35:02;;;;;;;82.70;42.72;;;;;;;2.84;95.04;103284.09;5053410;28;20036;-35
2022/01/26 10:37:29;;;;;;;81.95;41.92;;;;;;;2.87;94.75;103293.66;5053465;28;20037;-35
2022/01/26 10:40:08;;;;;;;72.35;38.88;;;;;;;2.91;94.90;103318.34;5053326;28;20042;-35
2022/01/26 10:42:33;;;;;;;75.53;39.55;;;;;;;2.93;95.05;103327.94;5053246;28;20025;-35
2022/01/26 10:45:14;;;;;;;71.53;38.67;;;;;;;2.95;94.70;103320.66;5053717;28;20112;-35
2022/01/26 10:47:46;;;;;;;79.00;39.78;;;;;;;2.87;94.81;103301.69;5053634;28;20021;-35
2022/01/26 10:53:12;;;;;;;75.22;39.40;;;;;;;2.98;95.56;103298.19;5052984;28;20037;-35
2022/01/26 10:55:41;;;;;;;69.38;38.35;;;;;;;2.96;94.99;103300.97;5052655;28;20037;-35
2022/01/26 10:58:07;;;;;;;76.63;40.35;;;;;;;3.02;95.25;103291.59;5052508;28;20176;-35
2022/01/26 11:00:41;;;;;;;73.05;38.80;;;;;;;3.00;95.05;103288.22;5053080;28;20108;-35
2022/01/26 11:03:08;;;;;;;72.63;39.10;;;;;;;3.03;95.00;103293.34;5052856;28;20365;-35
2022/01/26 11:05:33;;;;;;;74.57;39.35;;;;;;;2.99;94.52;103295.38;5052835;28;20136;-35
2022/01/26 11:08:00;;;;;;;73.27;40.60;;;;;;;2.97;95.21;103275.09;5052707;28;20039;-36
2022/01/26 11:10:37;;;;;;;67.30;36.85;;;;;;;2.93;95.16;103269.16;5052989;28;20369;-36
2022/01/26 11:13:03;;;;;;;;;;;;;;;3.10;94.54;103294.53;5053145;28;20033;-36
2022/01/26 11:15:28;;;;;;;67.85;36.92;;;;;;;3.03;94.82;103296.84;5052494;28;19908;-36
2022/01/26 11:18:10;;;;;;;66.10;36.33;;;;;;;2.93;94.29;103265.59;5052870;28;20037;-36
2022/01/26 11:20:49;;;;;;;70.30;38.00;;;;;;;2.95;95.00;103264.53;5052830;28;20049;-36
2022/01/26 11:23:18;;;;;;;65.40;37.25;;;;;;;3.04;95.21;103278.97;5052895;28;20033;-36
2022/01/26 11:25:46;;;;;;;61.20;35.05;;;;;;;3.09;94.99;103276.78;5052657;28;20025;-36
2022/01/26 11:28:19;;;;;;;60.35;35.88;;;;;;;3.10;94.49;103281.16;5052620;28;20126;-36
2022/01/26 11:30:45;;;;;;;60.72;35.65;;;;;;;3.12;95.07;103268.50;5053026;28;20037;-35
2022/01/26 11:33:14;;;;;;;60.85;34.25;;;;;;;3.17;94.88;103265.47;5053066;28;20377;-35
2022/01/26 11:35:44;;;;;;;63.20;36.58;;;;;;;3.16;94.50;103269.97;5053029;28;20110;-35
2022/01/26 11:38:40;;;;;;;63.92;37.13;;;;;;;3.12;95.09;103259.63;5056204;28;20462;-36
2022/01/26 11:46:59;;;;;;;;;;;;;;;3.27;94.10;103253.06;5056899;28;20128;-36
2022/01/26 11:49:44;;;;;;;54.83;32.50;;;;;;;3.27;94.91;103245.03;5056946;28;20004;-36
2022/01/26 11:52:26;;;;;;;60.15;35.13;;;;;;;3.26;94.56;103244.19;5056903;28;20076;-36
2022/01/26 11:54:59;;;;;;;59.38;35.17;;;;;;;3.25;94.46;103229.13;5056592;28;20025;-36
2022/01/26 11:57:36;;;;;;;60.40;36.28;;;;;;;3.31;94.81;103233.13;5056307;28;20029;-36
2022/01/26 12:00:08;;;;;;;56.22;33.47;;;;;;;3.31;94.64;103230.44;5056633;28;20531;-36
2022/01/26 12:05:09;;;;;;;58.70;35.03;;;;;;;3.26;94.64;103220.13;5055740;28;20029;-36
2022/01/26 12:07:46;;;;;;;57.28;35.15;;;;;;;3.31;94.64;103222.41;5055774;28;20025;-36
2022/01/26 12:10:18;;;;;;;56.97;34.80;;;;;;;3.28;94.50;103226.22;5055865;28;20024;-36
2022/01/26 12:12:44;;;;;;;61.13;35.28;;;;;;;3.34;94.29;103239.06;5056269;28;20068;-36
2022/01/26 12:15:15;;;;;;;63.13;35.70;;;;;;;3.35;94.53;103223.88;5056098;28;20032;-36
2022/01/26 12:18:02;;;;;;;65.30;37.92;;;;;;;3.38;95.01;103236.16;5056538;28;20087;-36
2022/01/26 12:45:19;;;;;;;59.55;34.78;;;;;;;3.35;94.78;103202.47;5013450;28;20117;-35
2022/01/26 12:47:45;;;;;;;66.78;38.08;;;;;;;3.52;94.49;103220.69;5012743;28;20049;-35
2022/01/26 12:50:11;;;;;;;69.22;39.45;;;;;;;3.64;94.59;103229.50;4995756;28;20042;-35
2022/01/26 12:52:37;;;;;;;64.93;36.83;;;;;;;3.55;94.08;103219.56;5012879;28;20041;-35
2022/01/26 12:55:03;;;;;;;66.65;37.22;;;;;;;3.59;93.94;103237.06;5013410;28;20034;-35
2022/01/26 12:57:29;;;;;;;;;;;;;;;3.67;93.75;103229.25;5013591;28;20034;-35
2022/01/26 13:00:05;;;;;;;65.37;36.07;;;;;;;3.64;93.67;103221.47;5033330;28;20369;-35
2022/01/26 13:02:30;;;;;;;66.78;37.25;;;;;;;3.54;93.61;103196.47;5054838;28;20278;-35
2022/01/26 13:05:03;;;;;;;64.63;36.27;;;;;;;3.61;93.45;103208.34;5055522;28;20021;-35
2022/01/26 13:07:29;;;;;;;64.93;36.58;;;;;;;3.62;94.18;103204.72;5054331;28;20025;-35
2022/01/26 13:09:55;;;;;;;69.40;39.47;;;;;;;3.58;93.08;103204.09;5055532;28;20054;-35
2022/01/26 13:12:28;;;;;;;72.03;39.33;;;;;;;3.59;93.46;103195.09;5054400;28;20142;-36
2022/01/26 13:15:09;;;;;;;61.60;37.15;;;;;;;3.57;94.15;103185.53;5054652;28;20032;-36
2022/01/26 13:17:41;;;;;;;62.88;37.22;;;;;;;3.67;94.47;103197.16;5054599;28;20040;-36
2022/01/26 13:32:12;;;;;;;62.00;38.30;;;;;;;3.70;93.65;103188.00;5054634;28;20103;-35
2022/01/26 13:37:31;;;;;;;;;;;;;;;3.78;93.42;103193.56;5054773;28;20400;-35
2022/01/26 13:50:04;;;;;;;70.50;38.87;;;;;;;3.67;93.55;103170.38;5054316;28;20041;-35
2022/01/26 13:52:51;;;;;;;73.57;40.22;;;;;;;3.64;93.26;103175.97;5054153;28;20458;-35
2022/01/26 13:58:29;;;;;;;65.53;38.70;;;;;;;3.68;93.55;103176.59;5054305;28;20049;-35
2022/01/26 14:00:58;;;;;;;62.72;37.47;;;;;;;3.70;93.28;103170.09;5054170;28;20392;-35
2022/01/26 14:03:27;;;;;;;64.65;36.88;;;;;;;3.75;93.49;103161.69;5054235;28;20045;-35
2022/01/26 14:05:52;;;;;;;63.60;37.50;;;;;;;3.67;93.07;103153.50;5053918;28;20033;-35
2022/01/26 14:08:17;;;;;;;68.50;39.33;;;;;;;3.73;93.90;103156.47;5053628;28;20033;-35
2022/01/26 14:10:46;;;;;;;63.73;39.13;;;;;;;3.74;93.36;103163.53;5054132;28;20029;-35